Time;durP1;ratioP1;P1;durP2;ratioP2;P2;SDS_P1;SDS_P2;PMS_P1;PMS_P2;Temp;Humidity;BMP_temperature;BMP_pressure;BME280_temperature;BME280_humidity;BME280_pressure;Samples;Min_cycle;Max_cycle;Signal;HPM_P1;HPM_P2
2022/05/07 00:00:29;;;;;;;28.35;21.60;;;;;;;13.87;69.65;102212.97;5053294;28;20040;-58
2022/05/07 00:02:55;;;;;;;29.42;21.38;;;;;;;13.82;70.23;102208.28;5052310;28;20400;-59
2022/05/07 00:05:21;;;;;;;28.70;21.83;;;;;;;13.84;69.91;102210.75;5053358;28;20025;-58
2022/05/07 00:07:46;;;;;;;30.48;21.58;;;;;;;13.81;69.89;102211.38;5053141;28;20048;-58
2022/05/07 00:10:12;;;;;;;31.40;21.40;;;;;;;13.79;70.11;102206.09;5053056;28;20021;-58
2022/05/07 00:12:37;;;;;;;29.40;22.13;;;;;;;13.78;70.61;102203.63;5053115;28;20503;-58
2022/05/07 00:15:03;;;;;;;30.50;21.65;;;;;;;13.79;70.31;102199.72;5052998;28;20537;-59
2022/05/07 00:20:12;;;;;;;31.20;21.70;;;;;;;13.79;70.61;102200.53;5052128;28;20122;-59
2022/05/07 00:22:37;;;;;;;29.73;21.35;;;;;;;13.71;70.97;102203.97;5052869;28;20055;-59
2022/05/07 00:25:03;;;;;;;29.25;20.85;;;;;;;13.68;70.79;102193.44;5052839;28;20040;-59
2022/05/07 00:27:28;;;;;;;29.83;22.48;;;;;;;13.59;71.41;102195.22;5052214;28;20133;-59
2022/05/07 00:29:53;;;;;;;31.13;22.75;;;;;;;13.50;71.80;102198.63;5052825;28;20499;-58
2022/05/07 00:32:19;;;;;;;29.83;21.42;;;;;;;13.49;71.43;102191.41;5052825;28;20126;-58
2022/05/07 00:34:44;;;;;;;29.08;21.85;;;;;;;13.48;71.57;102197.25;5052720;28;20037;-58
2022/05/07 00:37:09;;;;;;;32.67;22.52;;;;;;;13.43;72.17;102195.34;5052731;28;20029;-58
2022/05/07 00:39:34;;;;;;;30.90;21.90;;;;;;;13.33;72.96;102189.84;5052960;28;20025;-58
2022/05/07 00:42:05;;;;;;;29.70;21.50;;;;;;;13.32;72.12;102191.81;5051610;28;20496;-58
2022/05/07 00:44:31;;;;;;;31.17;21.98;;;;;;;13.24;73.35;102193.25;5052457;28;20021;-58
2022/05/07 00:47:09;;;;;;;30.65;22.08;;;;;;;13.18;73.66;102193.59;5052595;28;20060;-58
2022/05/07 00:49:35;;;;;;;29.50;21.85;;;;;;;13.12;73.94;102190.03;5053060;28;20067;-58
2022/05/07 00:52:00;;;;;;;30.77;21.50;;;;;;;13.10;73.37;102184.75;5051195;28;20400;-58
2022/05/07 00:54:26;;;;;;;33.05;23.17;;;;;;;13.07;73.43;102184.50;5052492;28;20360;-58
2022/05/07 00:56:51;;;;;;;29.90;22.42;;;;;;;13.07;73.08;102178.97;5052452;28;20033;-58
2022/05/07 00:59:17;;;;;;;30.27;22.58;;;;;;;12.98;74.48;102181.53;5052383;28;20075;-58
2022/05/07 01:01:42;;;;;;;33.88;22.98;;;;;;;12.87;75.32;102180.78;5052304;28;20036;-58
2022/05/07 01:04:07;;;;;;;31.10;23.35;;;;;;;12.81;75.52;102187.50;5051428;28;20021;-57
2022/05/07 01:06:34;;;;;;;30.95;22.08;;;;;;;12.78;75.05;102177.81;5052481;28;20440;-57
2022/05/07 01:09:00;;;;;;;31.52;23.05;;;;;;;12.71;76.34;102182.81;5052559;28;20472;-58
2022/05/07 01:11:26;;;;;;;30.27;22.88;;;;;;;12.62;76.41;102181.78;5051354;28;20047;-57
2022/05/07 01:13:52;;;;;;;30.63;22.50;;;;;;;12.61;76.20;102175.41;5052345;28;20043;-58
2022/05/07 01:16:18;;;;;;;33.05;23.70;;;;;;;12.62;76.50;102173.44;5052286;28;20099;-57
2022/05/07 01:18:43;;;;;;;34.60;24.67;;;;;;;12.61;76.49;102167.09;5052430;28;20033;-58
2022/05/07 01:21:14;;;;;;;31.50;22.77;;;;;;;12.64;75.75;102171.22;5052261;28;20052;-58
2022/05/07 01:23:41;;;;;;;32.13;22.48;;;;;;;12.62;75.79;102173.44;5052613;28;20032;-58
2022/05/07 01:26:07;;;;;;;31.17;22.83;;;;;;;12.58;76.66;102173.19;5052241;28;20057;-58
2022/05/07 01:28:32;;;;;;;31.48;22.48;;;;;;;12.55;76.97;102171.00;5051049;28;20017;-58
2022/05/07 01:30:57;;;;;;;30.98;21.67;;;;;;;12.54;76.34;102176.84;5052350;28;20026;-58
2022/05/07 01:33:23;;;;;;;29.95;21.67;;;;;;;12.54;76.93;102174.91;5052181;28;20032;-58
2022/05/07 01:35:48;;;;;;;30.80;21.95;;;;;;;12.52;76.26;102174.34;5052175;28;20115;-60
2022/05/07 01:38:14;;;;;;;31.23;21.83;;;;;;;12.50;76.18;102170.22;5052411;28;20082;-58
2022/05/07 01:40:39;;;;;;;31.23;22.05;;;;;;;12.44;75.65;102163.84;5055198;28;20476;-58
2022/05/07 01:43:05;;;;;;;31.25;21.77;;;;;;;12.42;76.06;102171.63;5055835;28;20074;-58
2022/05/07 01:45:30;;;;;;;32.42;22.02;;;;;;;12.39;76.08;102169.44;5055617;28;20174;-58
2022/05/07 01:48:11;;;;;;;32.10;22.48;;;;;;;12.38;76.65;102168.59;5055836;28;20082;-58
2022/05/07 01:50:38;;;;;;;32.92;22.83;;;;;;;12.35;77.13;102162.81;5056098;28;20480;-57
2022/05/07 01:53:08;;;;;;;32.10;23.42;;;;;;;12.33;77.74;102165.84;5055887;28;20060;-57
2022/05/07 01:55:34;;;;;;;33.58;23.30;;;;;;;12.26;78.24;102171.72;5055847;28;20507;-58
2022/05/07 01:58:00;;;;;;;31.90;23.25;;;;;;;12.25;78.41;102164.53;5055688;28;20094;-57
2022/05/07 02:00:26;;;;;;;30.92;22.63;;;;;;;12.24;77.43;102159.25;5055523;28;20473;-58
2022/05/07 02:02:51;;;;;;;33.13;23.05;;;;;;;12.25;77.33;102155.34;5055656;28;20037;-58
2022/05/07 02:05:16;;;;;;;32.28;21.58;;;;;;;12.21;77.83;102157.88;5055463;28;20392;-58
2022/05/07 02:07:42;;;;;;;32.08;22.90;;;;;;;12.15;78.87;102150.69;5055410;28;20042;-58
2022/05/07 02:10:08;;;;;;;32.92;23.00;;;;;;;12.13;78.28;102152.91;5055408;28;20025;-58
2022/05/07 02:12:33;;;;;;;32.95;23.13;;;;;;;12.14;78.50;102149.84;5037470;28;20400;-57
2022/05/07 02:14:58;;;;;;;33.47;22.75;;;;;;;12.14;78.23;102146.25;5055387;28;20032;-58
2022/05/07 02:17:24;;;;;;;30.80;23.40;;;;;;;12.10;78.67;102147.94;5055376;28;20085;-58
2022/05/07 02:19:49;;;;;;;33.33;22.80;;;;;;;12.10;78.79;102146.00;5055137;28;20031;-57
2022/05/07 02:22:14;;;;;;;31.98;23.20;;;;;;;12.09;78.10;102147.13;5055363;28;20029;-58
2022/05/07 02:24:39;;;;;;;32.85;23.13;;;;;;;12.08;77.67;102148.22;5072613;22;20063;-56
2022/05/07 02:27:05;;;;;;;32.58;22.85;;;;;;;12.07;78.52;102140.19;5073679;28;20063;-55
2022/05/07 02:29:30;;;;;;;33.30;23.80;;;;;;;12.06;78.76;102144.09;5074589;28;20032;-56
2022/05/07 02:32:05;;;;;;;35.38;23.60;;;;;;;12.02;78.97;102135.50;5074646;28;20131;-57
2022/05/07 02:34:34;;;;;;;32.60;24.15;;;;;;;11.95;79.37;102141.31;5074610;28;20036;-57
2022/05/07 02:37:00;;;;;;;35.70;25.17;;;;;;;11.92;79.10;102139.09;5074291;28;20074;-56
2022/05/07 02:39:26;;;;;;;33.80;25.92;;;;;;;11.90;79.35;102129.41;5074620;28;20110;-57
2022/05/07 02:44:36;;;;;;;33.33;25.77;;;;;;;11.82;79.87;102128.06;5074858;28;20098;-57
2022/05/07 02:47:01;;;;;;;35.60;25.98;;;;;;;11.83;79.45;102135.25;5074390;28;20028;-57
2022/05/07 02:49:26;;;;;;;35.67;25.92;;;;;;;11.82;79.73;102131.66;5074447;28;20048;-55
2022/05/07 02:51:52;;;;;;;35.17;26.05;;;;;;;11.82;79.51;102128.91;5072406;28;20368;-55
2022/05/07 02:54:17;;;;;;;34.30;25.83;;;;;;;11.82;79.40;102119.72;5073972;28;20060;-57
2022/05/07 02:56:42;;;;;;;34.55;25.15;;;;;;;11.82;79.05;102126.13;5074013;28;20463;-56
2022/05/07 02:59:08;;;;;;;35.80;26.85;;;;;;;11.84;79.47;102128.59;5073841;28;20039;-55
2022/05/07 03:01:33;;;;;;;37.40;27.08;;;;;;;11.85;79.86;102136.63;5074009;28;20488;-57
2022/05/07 03:03:58;;;;;;;35.20;26.73;;;;;;;11.84;79.41;102123.91;5073689;28;20036;-56
2022/05/07 03:06:24;;;;;;;36.40;27.67;;;;;;;11.85;79.20;102121.94;5073677;28;20033;-55
2022/05/07 03:08:49;;;;;;;34.55;26.15;;;;;;;11.84;79.19;102126.69;5073626;28;20534;-55
2022/05/07 03:11:14;;;;;;;37.05;27.70;;;;;;;11.83;79.41;102125.00;5073878;28;20486;-55
2022/05/07 03:13:40;;;;;;;35.42;27.27;;;;;;;11.81;79.93;102118.91;5073638;28;20032;-56
2022/05/07 03:16:06;;;;;;;36.00;27.60;;;;;;;11.78;80.11;102130.56;5073574;28;20412;-55
2022/05/07 03:18:32;;;;;;;35.45;27.10;;;;;;;11.79;80.38;102123.91;5073730;28;20024;-56
2022/05/07 03:20:58;;;;;;;35.67;27.42;;;;;;;11.77;80.54;102128.91;5088979;28;20489;-56
2022/05/07 03:23:25;;;;;;;36.53;27.52;;;;;;;11.77;80.81;102125.31;5073330;28;20016;-55
2022/05/07 03:25:50;;;;;;;37.55;27.70;;;;;;;11.80;80.12;102131.13;5073089;28;20544;-56
2022/05/07 03:28:15;;;;;;;36.10;27.08;;;;;;;11.80;79.53;102124.75;5073797;28;20040;-56
2022/05/07 03:30:41;;;;;;;36.38;27.30;;;;;;;11.79;80.09;102137.78;5073538;28;20378;-56
2022/05/07 03:33:06;;;;;;;33.90;25.77;;;;;;;11.78;79.96;102127.78;5073484;28;20039;-57
2022/05/07 03:35:31;;;;;;;33.90;26.73;;;;;;;11.75;81.16;102128.38;5073295;28;20028;-56
2022/05/07 03:37:56;;;;;;;36.92;27.52;;;;;;;11.72;81.41;102128.94;5073154;28;20024;-56
2022/05/07 03:40:22;;;;;;;35.25;27.98;;;;;;;11.69;81.23;102127.56;5073456;28;20029;-56
2022/05/07 03:42:47;;;;;;;35.90;26.60;;;;;;;11.68;80.39;102133.38;5073218;28;20060;-57
2022/05/07 03:45:12;;;;;;;35.22;26.55;;;;;;;11.68;79.85;102128.66;5073088;28;20063;-56
2022/05/07 03:47:39;;;;;;;36.88;27.80;;;;;;;11.64;81.77;102130.34;5073084;28;20493;-56
2022/05/07 03:50:05;;;;;;;34.05;26.63;;;;;;;11.63;81.05;102134.22;5073095;28;20056;-57
2022/05/07 03:55:14;;;;;;;33.03;26.52;;;;;;;11.64;81.68;102127.56;5072837;28;20128;-56
2022/05/07 03:57:39;;;;;;;35.83;26.55;;;;;;;11.64;81.66;102135.06;5073224;28;20107;-56
2022/05/07 04:00:05;;;;;;;36.95;28.55;;;;;;;11.60;81.94;102137.56;5073200;28;20447;-57
2022/05/07 04:02:32;;;;;;;34.88;27.02;;;;;;;11.59;81.60;102135.06;5072008;28;20024;-56
2022/05/07 04:04:58;;;;;;;37.10;27.25;;;;;;;11.59;81.10;102133.13;5072664;28;20056;-56
2022/05/07 04:07:23;;;;;;;34.55;26.23;;;;;;;11.61;81.10;102132.84;5072701;28;20056;-57
2022/05/07 04:09:54;;;;;;;34.50;26.17;;;;;;;11.65;81.04;102136.72;5072906;28;20036;-57
2022/05/07 04:12:19;;;;;;;33.38;27.02;;;;;;;11.63;81.61;102137.00;5073089;28;20033;-57
2022/05/07 04:14:44;;;;;;;35.05;27.50;;;;;;;11.66;81.52;102139.19;5072744;28;20429;-56
2022/05/07 04:17:10;;;;;;;36.05;27.45;;;;;;;11.67;82.01;102140.88;5072681;28;20060;-57
2022/05/07 04:19:36;;;;;;;34.60;26.33;;;;;;;11.70;81.63;102139.47;5072480;28;20024;-57
2022/05/07 04:22:02;;;;;;;38.78;28.00;;;;;;;11.70;81.34;102140.31;5072459;28;20437;-57
2022/05/07 04:24:27;;;;;;;34.03;26.90;;;;;;;11.74;81.17;102143.34;5072269;28;20032;-57
2022/05/07 04:26:52;;;;;;;34.95;27.77;;;;;;;11.77;81.75;102142.75;5072742;28;20402;-57
2022/05/07 04:29:17;;;;;;;36.00;26.30;;;;;;;11.83;81.74;102152.75;5072418;28;20035;-57
2022/05/07 04:31:44;;;;;;;35.50;26.90;;;;;;;11.86;81.21;102143.84;5072502;28;20145;-57
2022/05/07 04:34:09;;;;;;;35.05;27.27;;;;;;;11.89;81.69;102153.56;5072338;28;20029;-55
2022/05/07 04:36:35;;;;;;;35.65;27.00;;;;;;;11.92;81.37;102155.75;5072138;28;20029;-55
2022/05/07 04:39:00;;;;;;;36.15;26.75;;;;;;;11.91;81.34;102151.31;5072403;28;20471;-56
2022/05/07 04:41:25;;;;;;;35.92;27.95;;;;;;;11.95;80.95;102157.16;5072593;28;20387;-57
2022/05/07 04:43:51;;;;;;;35.70;26.65;;;;;;;12.00;81.09;102162.69;5072459;28;20059;-57
2022/05/07 04:46:17;;;;;;;39.85;28.75;;;;;;;12.00;81.48;102163.50;5072232;28;20055;-56
2022/05/07 04:48:43;;;;;;;35.33;27.92;;;;;;;12.05;81.52;102159.06;5070960;28;20024;-57
2022/05/07 04:51:08;;;;;;;35.97;26.50;;;;;;;12.08;81.75;102159.31;5072442;28;20031;-56
2022/05/07 04:53:33;;;;;;;35.78;28.15;;;;;;;12.10;81.01;102157.09;5072371;28;20036;-55
2022/05/07 04:55:58;;;;;;;35.97;26.88;;;;;;;12.12;80.71;102160.44;5072141;28;20146;-57
2022/05/07 04:58:24;;;;;;;37.55;28.25;;;;;;;12.15;81.25;102159.84;5072215;28;20383;-56
2022/05/07 05:00:49;;;;;;;34.28;27.42;;;;;;;12.19;80.84;102168.41;5072218;28;20029;-57
2022/05/07 05:03:15;;;;;;;35.38;28.42;;;;;;;12.23;80.85;102171.47;5072070;28;20471;-57
2022/05/07 05:05:41;;;;;;;36.40;29.80;;;;;;;12.26;80.63;102173.66;5071902;28;20028;-56
2022/05/07 05:08:07;;;;;;;35.38;29.55;;;;;;;12.28;81.16;102169.47;5072075;28;20040;-56
2022/05/07 05:10:32;;;;;;;36.15;28.88;;;;;;;12.34;80.35;102173.06;5072102;28;20088;-57
2022/05/07 05:12:58;;;;;;;33.80;28.13;;;;;;;12.41;80.19;102181.06;5072269;28;20028;-56
2022/05/07 05:15:23;;;;;;;37.25;28.35;;;;;;;12.42;80.12;102183.56;5076264;28;20067;-57
2022/05/07 05:17:48;;;;;;;37.00;29.50;;;;;;;12.50;79.94;102184.91;5075971;28;20034;-55
2022/05/07 05:20:14;;;;;;;35.85;29.00;;;;;;;12.53;79.72;102183.50;5075906;28;20490;-56
2022/05/07 05:22:48;;;;;;;35.53;29.15;;;;;;;12.59;79.62;102183.19;5076238;28;20123;-56
2022/05/07 05:25:14;;;;;;;35.60;29.13;;;;;;;12.66;78.75;102188.44;5075589;28;20441;-56
2022/05/07 05:27:39;;;;;;;38.83;29.73;;;;;;;12.74;78.24;102181.44;5075876;28;20020;-57
2022/05/07 05:30:05;;;;;;;37.90;28.73;;;;;;;12.85;77.63;102185.78;5075819;28;20025;-57
2022/05/07 05:32:30;;;;;;;33.92;27.60;;;;;;;12.95;77.07;102190.44;5075760;28;20044;-56
2022/05/07 05:34:55;;;;;;;36.83;29.23;;;;;;;13.07;76.39;102196.47;5076024;28;20503;-56
2022/05/07 05:37:21;;;;;;;38.05;28.88;;;;;;;13.18;76.12;102199.13;5075571;28;20032;-57
2022/05/07 05:39:46;;;;;;;36.33;29.02;;;;;;;13.26;75.24;102206.88;5075520;28;20497;-56
2022/05/07 05:42:12;;;;;;;35.72;27.90;;;;;;;13.34;74.96;102205.41;5075551;28;20033;-58
2022/05/07 05:44:39;;;;;;;37.25;28.23;;;;;;;13.42;74.58;102207.56;5075487;28;20040;-56
2022/05/07 05:47:09;;;;;;;36.03;27.35;;;;;;;13.52;73.67;102215.81;5075275;28;20130;-56
2022/05/07 05:49:34;;;;;;;35.35;27.23;;;;;;;13.61;73.43;102213.25;5075652;28;20105;-56
2022/05/07 05:52:07;;;;;;;34.97;26.55;;;;;;;13.68;72.75;102213.72;5075510;28;20459;-56
2022/05/07 05:54:34;;;;;;;35.05;24.25;;;;;;;13.72;71.64;102220.38;5075401;28;20061;-57
2022/05/07 05:57:00;;;;;;;32.03;22.73;;;;;;;13.72;70.93;102212.03;5075276;28;20135;-57
2022/05/07 05:59:26;;;;;;;30.67;23.42;;;;;;;13.66;71.05;102215.97;5075173;28;20055;-56
2022/05/07 06:01:52;;;;;;;33.33;24.25;;;;;;;13.64;70.83;102211.81;5074289;28;20040;-57
2022/05/07 06:04:17;;;;;;;32.67;24.30;;;;;;;13.63;70.97;102208.22;5075648;28;20116;-58
2022/05/07 06:06:43;;;;;;;31.90;23.33;;;;;;;13.64;71.20;102211.81;5075132;28;20093;-58
2022/05/07 06:09:08;;;;;;;33.13;24.10;;;;;;;13.69;71.37;102212.59;5075392;28;20028;-57
2022/05/07 06:11:34;;;;;;;32.47;23.38;;;;;;;13.71;71.27;102204.81;5075275;28;20097;-56
2022/05/07 06:13:59;;;;;;;31.77;23.13;;;;;;;13.75;70.79;102207.81;5075543;28;20564;-56
2022/05/07 06:16:25;;;;;;;29.55;21.67;;;;;;;13.74;69.56;102211.72;5074928;28;20459;-57
2022/05/07 06:18:50;;;;;;;29.23;22.15;;;;;;;13.82;70.35;102208.28;5074888;28;20115;-57
2022/05/07 06:21:16;;;;;;;30.65;22.58;;;;;;;13.92;69.34;102218.50;5074920;28;20016;-56
2022/05/07 06:23:41;;;;;;;30.17;20.83;;;;;;;14.01;69.09;102215.88;5075114;28;20048;-56
2022/05/07 06:28:52;;;;;;;31.75;21.45;;;;;;;14.14;68.62;102217.09;5075135;28;20085;-56
2022/05/07 06:31:17;;;;;;;30.20;21.40;;;;;;;14.21;68.50;102220.38;5075068;28;20021;-56
2022/05/07 06:33:43;;;;;;;32.95;22.48;;;;;;;14.32;68.20;102221.06;5074561;28;20517;-56
2022/05/07 06:36:08;;;;;;;31.25;22.13;;;;;;;14.48;68.00;102216.13;5074621;28;20024;-56
2022/05/07 06:38:34;;;;;;;32.83;22.08;;;;;;;14.65;68.09;102218.38;5074199;28;20028;-56
2022/05/07 06:41:03;;;;;;;31.52;21.88;;;;;;;14.81;67.52;102216.25;5074272;28;20109;-57
2022/05/07 06:43:30;;;;;;;32.78;20.88;;;;;;;14.85;66.98;102219.25;5074351;28;20071;-56
2022/05/07 06:45:56;;;;;;;32.13;21.85;;;;;;;14.86;66.98;102218.13;5074236;28;20444;-58
2022/05/07 06:48:21;;;;;;;32.00;22.30;;;;;;;14.87;67.20;102222.56;5074231;28;20039;-57
2022/05/07 06:50:46;;;;;;;31.50;22.23;;;;;;;14.92;66.44;102216.94;5074189;28;20119;-56
2022/05/07 06:53:12;;;;;;;32.63;22.45;;;;;;;14.98;67.28;102218.50;5074281;28;20040;-57
2022/05/07 06:55:54;;;;;;;32.78;22.67;;;;;;;15.07;67.22;102215.84;5074291;28;20356;-56
2022/05/07 06:58:24;;;;;;;31.27;22.08;;;;;;;15.18;66.71;102217.31;5074266;28;20485;-57
2022/05/07 07:00:49;;;;;;;31.23;21.42;;;;;;;15.26;66.16;102210.25;5073003;28;20442;-57
2022/05/07 07:03:15;;;;;;;33.15;22.45;;;;;;;15.37;65.81;102208.09;5074009;28;20024;-56
2022/05/07 07:05:40;;;;;;;31.70;21.50;;;;;;;15.36;65.51;102209.22;5073489;28;20108;-58
2022/05/07 07:08:06;;;;;;;33.33;23.88;;;;;;;15.41;65.78;102214.72;5073915;28;20351;-56
2022/05/07 07:10:31;;;;;;;31.40;22.00;;;;;;;15.52;65.90;102215.34;5073847;28;20036;-56
2022/05/07 07:12:56;;;;;;;31.33;21.60;;;;;;;15.66;65.02;102215.38;5073736;28;20097;-57
2022/05/07 07:15:23;;;;;;;30.88;21.20;;;;;;;15.85;64.29;102213.38;5073754;28;20050;-58
2022/05/07 07:17:48;;;;;;;34.20;21.85;;;;;;;16.02;63.58;102215.56;5074063;28;20101;-57
2022/05/07 07:20:14;;;;;;;28.05;20.20;;;;;;;16.16;62.69;102212.75;5073829;28;20021;-57
2022/05/07 07:22:39;;;;;;;29.35;20.00;;;;;;;16.24;62.28;102213.16;5073844;28;20089;-57
2022/05/07 07:25:05;;;;;;;30.02;20.92;;;;;;;16.32;62.21;102227.22;5073269;28;20072;-57
2022/05/07 07:27:30;;;;;;;28.35;20.15;;;;;;;16.38;62.05;102214.00;5072337;28;20028;-56
2022/05/07 07:29:55;;;;;;;32.78;20.30;;;;;;;16.46;61.73;102213.25;5073733;28;20037;-59
2022/05/07 07:32:21;;;;;;;30.92;20.35;;;;;;;16.55;61.12;102216.09;5073742;28;20360;-57
2022/05/07 07:34:46;;;;;;;30.25;19.15;;;;;;;16.64;60.70;102216.22;5073575;28;20036;-57
2022/05/07 07:37:11;;;;;;;31.23;20.15;;;;;;;16.73;60.07;102217.13;5072232;28;20162;-58
2022/05/07 07:39:37;;;;;;;29.13;20.27;;;;;;;16.73;59.90;102222.69;5073340;28;20339;-57
2022/05/07 07:42:02;;;;;;;29.25;20.02;;;;;;;16.79;59.51;102220.63;5073196;28;20044;-57
2022/05/07 07:44:27;;;;;;;28.33;19.40;;;;;;;16.98;59.34;102214.88;5073195;28;20021;-57
2022/05/07 07:49:37;;;;;;;;;;;;;;;17.44;60.16;102219.31;5073592;28;20043;-57
2022/05/07 07:52:02;;;;;;;31.23;19.27;;;;;;;17.56;56.25;102212.31;5073771;28;20255;-57
2022/05/07 07:54:27;;;;;;;30.20;20.05;;;;;;;17.79;56.03;102210.28;5072962;28;20174;-57
2022/05/07 07:56:53;;;;;;;30.25;19.00;;;;;;;17.91;55.47;102213.28;5072870;28;20050;-57
2022/05/07 07:59:18;;;;;;;28.80;19.30;;;;;;;18.11;54.02;102205.50;5072687;28;20113;-57
2022/05/07 08:01:43;;;;;;;28.83;18.60;;;;;;;18.26;52.62;102214.56;5072893;28;20028;-56
2022/05/07 08:04:09;;;;;;;28.98;19.42;;;;;;;18.34;53.00;102203.41;5072902;28;20059;-57
2022/05/07 08:06:34;;;;;;;31.48;20.10;;;;;;;18.54;53.76;102204.75;5072582;28;20395;-56
2022/05/07 08:11:47;;;;;;;30.02;20.05;;;;;;;18.79;52.21;102210.72;5071816;28;20059;-57
2022/05/07 08:14:13;;;;;;;31.50;20.05;;;;;;;18.86;52.39;102210.19;5072697;28;20461;-56
2022/05/07 08:16:39;;;;;;;31.70;21.38;;;;;;;18.81;51.95;102214.00;5072617;28;20043;-57
2022/05/07 08:19:06;;;;;;;31.02;20.63;;;;;;;18.85;51.54;102215.00;5072546;28;20065;-57
2022/05/07 08:21:32;;;;;;;30.17;20.42;;;;;;;18.89;52.34;102215.16;5072252;28;20052;-56
2022/05/07 08:23:57;;;;;;;30.83;20.58;;;;;;;18.93;52.53;102213.38;5072453;28;20477;-58
2022/05/07 08:26:22;;;;;;;34.25;22.38;;;;;;;18.98;52.28;102216.00;5072323;28;20048;-58
2022/05/07 08:28:51;;;;;;;33.53;22.58;;;;;;;18.96;52.56;102209.09;5072820;28;20047;-57
2022/05/07 08:31:16;;;;;;;33.28;22.48;;;;;;;18.90;52.43;102221.56;5072286;28;20032;-57
2022/05/07 08:33:42;;;;;;;32.22;22.48;;;;;;;18.88;53.08;102218.28;5072223;28;20024;-56
2022/05/07 08:36:08;;;;;;;35.15;22.92;;;;;;;18.79;53.06;102223.88;5072229;28;20028;-57
2022/05/07 08:38:34;;;;;;;32.05;21.67;;;;;;;18.76;53.63;102216.13;5072292;28;20031;-57
2022/05/07 08:41:02;;;;;;;32.42;22.20;;;;;;;18.92;53.63;102225.72;5072099;28;20028;-57
2022/05/07 08:43:36;;;;;;;32.13;21.92;;;;;;;19.02;52.95;102233.00;5071993;28;20037;-56
2022/05/07 08:46:07;;;;;;;34.00;23.63;;;;;;;19.10;52.34;102212.53;5072108;28;20039;-56
2022/05/07 08:48:33;;;;;;;33.90;22.85;;;;;;;19.24;52.34;102222.75;5071405;28;20032;-57
2022/05/07 08:50:58;;;;;;;34.33;23.55;;;;;;;19.36;52.13;102224.88;5072062;28;20043;-56
2022/05/07 08:53:24;;;;;;;33.47;23.13;;;;;;;19.47;52.04;102218.56;5071820;28;20028;-56
2022/05/07 08:55:54;;;;;;;32.67;23.05;;;;;;;19.51;51.55;102220.72;5071933;28;20040;-57
2022/05/07 08:58:19;;;;;;;33.67;23.20;;;;;;;19.48;51.78;102217.41;5071847;28;20036;-57
2022/05/07 09:00:45;;;;;;;33.17;23.15;;;;;;;19.58;51.64;102198.56;5071776;28;20016;-57
2022/05/07 09:03:15;;;;;;;34.10;23.63;;;;;;;19.63;51.29;102213.25;5070490;28;20069;-55
2022/05/07 09:05:41;;;;;;;34.53;24.10;;;;;;;19.72;50.97;102204.78;5072053;28;20025;-56
2022/05/07 09:08:08;;;;;;;34.60;23.55;;;;;;;19.97;50.78;102216.28;5071752;28;20111;-58
2022/05/07 09:10:35;;;;;;;33.35;24.75;;;;;;;20.06;49.62;102217.06;5071806;28;20035;-57
2022/05/07 09:13:17;;;;;;;33.97;23.35;;;;;;;20.05;50.41;102211.78;5071971;28;20077;-59
2022/05/07 09:15:57;;;;;;;34.78;24.02;;;;;;;19.93;50.44;102212.50;5071636;28;20076;-57
2022/05/07 09:18:23;;;;;;;33.63;23.80;;;;;;;19.85;50.07;102210.50;5071774;28;20028;-57
2022/05/07 09:21:23;;;;;;;33.35;22.20;;;;;;;19.94;50.70;102206.53;5071790;28;20078;-58
2022/05/07 09:24:07;;;;;;;33.55;21.42;;;;;;;20.04;49.93;102210.13;5071441;28;20052;-56
2022/05/07 09:26:37;;;;;;;29.83;21.42;;;;;;;19.88;47.19;102212.69;5071143;28;20050;-58
2022/05/07 09:29:08;;;;;;;35.15;21.83;;;;;;;19.77;48.81;102209.41;5071538;28;20059;-57
2022/05/07 09:31:34;;;;;;;30.75;21.98;;;;;;;19.79;49.25;102207.06;5071544;28;20028;-57
2022/05/07 09:36:54;;;;;;;;;;;;;;;19.83;47.16;102212.84;5072095;28;20047;-57
2022/05/07 09:39:19;;;;;;;25.83;14.73;;;;;;;19.71;44.79;102211.56;5071251;28;19917;-58
2022/05/07 09:41:45;;;;;;;25.85;14.57;;;;;;;19.73;44.05;102211.22;5071389;28;20283;-57
2022/05/07 09:44:11;;;;;;;26.17;13.50;;;;;;;19.77;43.43;102210.22;5071139;28;20507;-57
2022/05/07 09:46:38;;;;;;;23.65;13.52;;;;;;;19.85;43.78;102208.56;5070812;28;20100;-57
2022/05/07 09:49:05;;;;;;;25.52;13.77;;;;;;;19.93;44.34;102216.13;5071032;28;20447;-58
2022/05/07 09:51:31;;;;;;;26.60;15.30;;;;;;;20.04;45.76;102213.75;5071064;28;20464;-57
2022/05/07 09:59:25;;;;;;;;;;;;;;;20.20;46.41;102216.81;5071699;28;20134;-58
2022/05/07 10:02:10;;;;;;;27.58;16.38;;;;;;;20.14;46.58;102206.94;5074321;28;19909;-57
2022/05/07 10:04:54;;;;;;;28.33;16.75;;;;;;;20.29;46.46;102216.78;5074674;28;20048;-56
2022/05/07 10:07:45;;;;;;;28.38;16.63;;;;;;;20.24;46.56;102197.28;5074530;28;20033;-57
2022/05/07 10:10:25;;;;;;;27.50;16.13;;;;;;;20.25;46.04;102213.00;5074819;28;20032;-57
2022/05/07 10:12:55;;;;;;;27.95;16.38;;;;;;;20.36;45.92;102205.81;5073257;28;20547;-57
2022/05/07 10:15:23;;;;;;;27.52;16.50;;;;;;;20.37;46.29;102210.28;5074829;28;20032;-58
2022/05/07 10:18:02;;;;;;;28.67;17.10;;;;;;;20.64;46.57;102205.28;5074452;28;20086;-57
2022/05/07 10:20:48;;;;;;;26.70;16.35;;;;;;;20.71;45.34;102208.38;5074413;28;20433;-57
2022/05/07 10:23:25;;;;;;;27.15;16.67;;;;;;;20.66;43.73;102207.75;5074626;28;20035;-57
2022/05/07 10:25:56;;;;;;;29.00;18.30;;;;;;;20.69;45.83;102196.63;5074662;28;20153;-57
2022/05/07 10:28:21;;;;;;;28.45;17.38;;;;;;;20.75;46.48;102199.28;5074489;28;20064;-55
2022/05/07 10:30:48;;;;;;;27.88;17.25;;;;;;;20.92;45.78;102196.31;5074266;28;20539;-57
2022/05/07 10:33:15;;;;;;;28.17;17.50;;;;;;;21.09;45.33;102194.50;5074355;28;20027;-58
2022/05/07 10:35:52;;;;;;;27.52;17.42;;;;;;;21.22;44.97;102196.19;5074229;28;20063;-57
2022/05/07 10:38:27;;;;;;;26.77;17.95;;;;;;;21.28;44.91;102191.97;5074278;28;20506;-57
2022/05/07 10:41:01;;;;;;;27.15;18.15;;;;;;;21.34;44.72;102179.34;5074205;28;20097;-56
2022/05/07 10:43:38;;;;;;;28.92;17.63;;;;;;;21.54;44.90;102187.25;5074270;28;20056;-57
2022/05/07 10:46:12;;;;;;;27.92;17.25;;;;;;;21.72;43.84;102191.50;5073964;28;20336;-57
2022/05/07 10:49:07;;;;;;;30.15;18.92;;;;;;;21.71;44.29;102194.69;5074067;28;20475;-57
2022/05/07 10:51:50;;;;;;;28.65;18.30;;;;;;;21.46;43.79;102191.78;5072619;28;20040;-57
2022/05/07 10:54:24;;;;;;;27.88;16.85;;;;;;;21.60;44.31;102203.59;5074331;28;20104;-57
2022/05/07 10:56:55;;;;;;;28.55;17.48;;;;;;;21.74;44.25;102180.72;5074039;28;20039;-58
2022/05/07 10:59:21;;;;;;;26.60;17.65;;;;;;;21.91;44.13;102184.47;5073712;28;20037;-58
2022/05/07 11:01:48;;;;;;;26.20;17.40;;;;;;;22.04;43.85;102182.47;5073753;28;20495;-57
2022/05/07 11:04:17;;;;;;;28.75;18.17;;;;;;;22.08;43.34;102178.59;5074083;28;20025;-56
2022/05/07 11:06:43;;;;;;;28.17;18.45;;;;;;;22.02;42.95;102184.81;5073655;28;20020;-57
2022/05/07 11:09:22;;;;;;;27.70;17.58;;;;;;;21.99;43.60;102177.09;5073594;28;20024;-57
2022/05/07 11:11:49;;;;;;;27.58;17.98;;;;;;;21.78;43.23;102178.84;5073268;28;20032;-57
2022/05/07 11:14:30;;;;;;;27.23;17.25;;;;;;;21.59;44.08;102184.22;5073329;28;20044;-56
2022/05/07 11:16:57;;;;;;;29.25;17.40;;;;;;;21.28;44.40;102183.53;5073216;28;20131;-58
2022/05/07 11:19:31;;;;;;;26.55;17.15;;;;;;;21.59;44.11;102176.59;5073466;28;20021;-57
2022/05/07 11:21:57;;;;;;;26.50;16.33;;;;;;;21.94;43.12;102176.16;5073567;28;20363;-56
2022/05/07 11:24:25;;;;;;;28.63;17.27;;;;;;;22.18;42.72;102177.31;5073195;28;20146;-57
2022/05/07 11:26:55;;;;;;;28.60;17.88;;;;;;;22.07;42.40;102171.31;5073331;28;20048;-57
2022/05/07 11:29:21;;;;;;;27.70;16.30;;;;;;;22.28;42.07;102173.19;5073324;28;20474;-57
2022/05/07 11:31:58;;;;;;;24.85;15.30;;;;;;;22.51;40.25;102169.88;5073135;28;20036;-57
2022/05/07 11:34:37;;;;;;;25.17;15.32;;;;;;;22.79;39.04;102184.00;5073076;28;20028;-57